Time;durP1;ratioP1;P1;durP2;ratioP2;P2;SDS_P1;SDS_P2;PMS_P1;PMS_P2;Temp;Humidity;BMP_temperature;BMP_pressure;BME280_temperature;BME280_humidity;BME280_pressure;Samples;Min_cycle;Max_cycle;Signal;HPM_P1;HPM_P2
2024/01/30 00:03:26;;;;;;;11.90;6.43;;;4.90;34.40;;;;;;10406167;28;21261;-75
2024/01/30 00:08:30;;;;;;;10.33;7.63;;;4.90;34.40;;;;;;10401194;28;20795;-74
2024/01/30 00:13:34;;;;;;;9.57;7.83;;;4.80;34.60;;;;;;10402476;28;20251;-75
2024/01/30 00:18:39;;;;;;;11.63;8.80;;;4.80;34.80;;;;;;10405195;28;20316;-75
2024/01/30 00:23:42;;;;;;;9.57;8.67;;;4.80;34.70;;;;;;10398812;28;20320;-74
2024/01/30 00:28:47;;;;;;;11.07;9.90;;;4.80;34.80;;;;;;10401280;28;20973;-74
2024/01/30 00:33:50;;;;;;;13.73;10.40;;;4.70;34.60;;;;;;10409395;28;20229;-74
2024/01/30 00:38:53;;;;;;;9.30;8.37;;;4.70;34.60;;;;;;10398557;28;20231;-74
2024/01/30 00:43:59;;;;;;;11.10;9.77;;;4.60;34.70;;;;;;10395816;28;20236;-74
2024/01/30 00:49:02;;;;;;;11.47;9.60;;;4.60;34.90;;;;;;10394542;28;20234;-75
2024/01/30 00:54:06;;;;;;;10.17;8.50;;;4.60;35.00;;;;;;10396891;28;20304;-74
2024/01/30 00:59:11;;;;;;;9.47;7.37;;;4.50;34.90;;;;;;10406389;28;20730;-74
2024/01/30 01:04:15;;;;;;;8.53;7.60;;;4.50;35.00;;;;;;10391920;28;20820;-74
2024/01/30 01:09:18;;;;;;;9.17;8.27;;;4.60;35.00;;;;;;10398081;28;20220;-74
2024/01/30 01:14:23;;;;;;;10.20;8.03;;;4.50;34.90;;;;;;10401493;28;20383;-75
2024/01/30 01:19:26;;;;;;;10.20;9.10;;;4.50;35.00;;;;;;10401991;28;20699;-75
2024/01/30 01:24:30;;;;;;;10.50;7.80;;;4.50;34.90;;;;;;10396356;28;20230;-75
2024/01/30 01:29:35;;;;;;;10.27;9.27;;;4.50;34.90;;;;;;10395013;28;20228;-75
2024/01/30 01:34:38;;;;;;;8.73;7.53;;;4.50;34.90;;;;;;10393904;28;20233;-75
2024/01/30 01:39:41;;;;;;;10.03;8.13;;;4.40;34.80;;;;;;10398867;28;20226;-75
2024/01/30 01:44:46;;;;;;;9.77;7.63;;;4.40;34.80;;;;;;10401080;28;20221;-75
2024/01/30 01:49:49;;;;;;;9.63;7.27;;;4.30;34.70;;;;;;10400539;28;20304;-75
2024/01/30 01:54:53;;;;;;;8.20;6.43;;;4.10;34.70;;;;;;10399990;28;20268;-75
2024/01/30 01:59:57;;;;;;;10.47;8.63;;;4.10;34.80;;;;;;10398022;28;20647;-75
2024/01/30 02:05:01;;;;;;;8.53;7.67;;;4.00;34.90;;;;;;10403744;28;20233;-75
2024/01/30 02:10:05;;;;;;;10.60;8.73;;;3.90;34.80;;;;;;10399828;28;20222;-74
2024/01/30 02:15:14;;;;;;;8.83;7.90;;;3.90;34.70;;;;;;10399915;28;20668;-75
2024/01/30 02:20:20;;;;;;;9.40;8.27;;;3.80;34.80;;;;;;10399503;28;20657;-75
2024/01/30 02:25:34;;;;;;;9.63;8.00;;;3.70;34.80;;;;;;10402536;28;20229;-75
2024/01/30 02:30:37;;;;;;;7.73;6.93;;;3.60;35.60;;;;;;10392142;28;20221;-74
2024/01/30 02:35:40;;;;;;;10.30;7.57;;;3.60;35.40;;;;;;10392128;28;20768;-74
2024/01/30 02:40:45;;;;;;;9.20;7.60;;;3.60;35.60;;;;;;10393358;28;20231;-74
2024/01/30 02:45:48;;;;;;;8.30;7.17;;;3.70;35.70;;;;;;10400638;28;20225;-74
2024/01/30 02:50:51;;;;;;;7.20;6.50;;;3.70;35.40;;;;;;10391254;28;20780;-74
2024/01/30 02:55:56;;;;;;;8.80;7.27;;;3.70;35.60;;;;;;10391808;28;20745;-74
2024/01/30 03:00:59;;;;;;;8.50;7.10;;;3.60;35.60;;;;;;10396833;28;20230;-75
2024/01/30 03:06:03;;;;;;;7.27;6.20;;;3.70;35.30;;;;;;10391735;28;20229;-74
2024/01/30 03:11:07;;;;;;;8.20;6.77;;;3.60;35.20;;;;;;10393200;28;20490;-74
2024/01/30 03:16:10;;;;;;;8.00;6.90;;;3.60;35.30;;;;;;10391246;28;20308;-74
2024/01/30 03:21:14;;;;;;;9.43;6.97;;;3.60;35.20;;;;;;10397094;28;20724;-74
2024/01/30 03:26:18;;;;;;;8.27;6.70;;;3.60;35.00;;;;;;10397993;28;20232;-74
2024/01/30 03:31:22;;;;;;;8.73;7.20;;;3.50;34.90;;;;;;10385831;28;20230;-74
2024/01/30 03:36:25;;;;;;;7.27;6.23;;;3.40;34.70;;;;;;10397275;28;20288;-74
2024/01/30 03:41:30;;;;;;;6.43;5.83;;;3.30;35.20;;;;;;10388371;28;20225;-74
2024/01/30 03:46:33;;;;;;;7.90;6.40;;;3.20;35.30;;;;;;10393942;28;20230;-74
2024/01/30 03:51:36;;;;;;;7.17;6.10;;;3.20;35.30;;;;;;10394440;28;20226;-74
2024/01/30 03:56:41;;;;;;;7.17;6.47;;;3.20;35.30;;;;;;10395574;28;20320;-76
2024/01/30 04:01:47;;;;;;;7.47;6.77;;;3.20;35.30;;;;;;10389545;28;20226;-74
2024/01/30 04:06:51;;;;;;;8.00;5.67;;;3.20;35.30;;;;;;10388306;28;20226;-74
2024/01/30 04:11:55;;;;;;;7.13;6.27;;;3.20;35.30;;;;;;10391448;28;20238;-74
2024/01/30 04:16:58;;;;;;;8.77;7.13;;;3.20;35.30;;;;;;10388718;28;20225;-74
2024/01/30 04:22:02;;;;;;;8.23;6.37;;;3.20;35.30;;;;;;10392220;28;20345;-74
2024/01/30 04:27:06;;;;;;;7.90;6.50;;;3.10;35.20;;;;;;10398043;28;20237;-74
2024/01/30 04:32:11;;;;;;;9.63;6.83;;;3.20;35.30;;;;;;10395524;28;20723;-74
2024/01/30 04:37:14;;;;;;;7.77;6.43;;;3.20;35.30;;;;;;10397777;28;20332;-74
2024/01/30 04:42:19;;;;;;;7.13;6.43;;;3.10;35.20;;;;;;10394056;28;20593;-74
2024/01/30 04:47:22;;;;;;;9.67;6.70;;;3.10;35.20;;;;;;10399073;28;20736;-73
2024/01/30 04:52:25;;;;;;;8.23;7.20;;;3.10;35.20;;;;;;10394944;28;20314;-74
2024/01/30 04:57:30;;;;;;;7.63;6.90;;;3.10;35.20;;;;;;10393035;28;20230;-74
2024/01/30 05:02:34;;;;;;;8.40;6.90;;;3.00;35.10;;;;;;10394050;28;20229;-74
2024/01/30 05:07:37;;;;;;;8.40;6.90;;;3.00;35.20;;;;;;10395480;28;20233;-74
2024/01/30 05:12:45;;;;;;;7.93;7.13;;;2.90;35.00;;;;;;10392917;28;20239;-74
2024/01/30 05:17:48;;;;;;;6.63;5.90;;;2.80;35.00;;;;;;10393205;28;20242;-74
2024/01/30 05:22:52;;;;;;;7.43;6.60;;;2.70;34.90;;;;;;10393990;28;20234;-74
2024/01/30 05:27:56;;;;;;;6.67;5.97;;;2.70;34.90;;;;;;10399658;28;20806;-75
2024/01/30 05:33:00;;;;;;;7.47;6.67;;;2.70;34.90;;;;;;10397798;28;20253;-75
2024/01/30 05:38:04;;;;;;;7.37;6.60;;;2.70;34.90;;;;;;10396075;28;20276;-75
2024/01/30 05:43:09;;;;;;;7.47;6.50;;;2.80;35.00;;;;;;10400439;28;20596;-75
2024/01/30 05:48:12;;;;;;;6.87;6.07;;;2.80;35.00;;;;;;10388584;28;20222;-75
2024/01/30 05:53:15;;;;;;;8.30;5.87;;;2.80;35.00;;;;;;10395131;28;20235;-75
2024/01/30 05:58:21;;;;;;;5.97;5.40;;;2.70;34.90;;;;;;10391821;28;20236;-75
2024/01/30 06:03:25;;;;;;;6.63;5.70;;;2.70;34.90;;;;;;10398936;28;20231;-75
2024/01/30 06:08:28;;;;;;;12.23;7.23;;;2.70;35.00;;;;;;10393897;28;20225;-74
2024/01/30 06:13:33;;;;;;;13.00;9.43;;;2.70;34.90;;;;;;10396605;28;20244;-76
2024/01/30 06:18:37;;;;;;;12.33;9.63;;;2.60;34.80;;;;;;10392404;28;20807;-76
2024/01/30 06:23:40;;;;;;;10.27;7.57;;;2.50;34.90;;;;;;10400137;28;20734;-76
2024/01/30 06:28:45;;;;;;;7.43;6.70;;;2.50;35.30;;;;;;10406352;28;20222;-76
2024/01/30 06:33:49;;;;;;;8.13;7.33;;;2.60;35.80;;;;;;10403546;28;20230;-76
2024/01/30 06:38:57;;;;;;;8.87;7.90;;;2.40;35.30;;;;;;10393285;28;20237;-76
2024/01/30 06:44:04;;;;;;;7.97;7.03;;;2.40;35.70;;;;;;10397957;28;20750;-77
2024/01/30 06:49:07;;;;;;;10.40;8.90;;;2.40;35.50;;;;;;10405482;28;20287;-76
2024/01/30 06:54:10;;;;;;;8.73;7.53;;;2.40;35.30;;;;;;10397188;28;20233;-75
2024/01/30 06:59:15;;;;;;;9.07;6.87;;;2.40;35.40;;;;;;10394370;28;20209;-75
2024/01/30 07:04:18;;;;;;;8.13;6.10;;;2.40;35.50;;;;;;10393323;28;20229;-75
2024/01/30 07:09:23;;;;;;;8.63;6.33;;;2.30;35.50;;;;;;10385770;28;20261;-75
2024/01/30 07:14:27;;;;;;;6.20;5.63;;;2.40;35.70;;;;;;10390712;28;20234;-75
2024/01/30 07:19:31;;;;;;;6.97;6.07;;;2.30;35.80;;;;;;10391590;28;20229;-76
2024/01/30 07:24:34;;;;;;;8.83;7.13;;;2.40;35.80;;;;;;10389534;28;20233;-74
2024/01/30 07:29:39;;;;;;;8.70;7.17;;;2.40;36.00;;;;;;10401623;28;20222;-74
2024/01/30 07:34:42;;;;;;;8.30;7.13;;;2.50;36.20;;;;;;10403020;28;20663;-74
2024/01/30 07:40:06;;;;;;;8.53;7.40;;;2.50;36.10;;;;;;10404359;28;20308;-74
2024/01/30 07:45:11;;;;;;;10.87;9.47;;;2.60;36.20;;;;;;10404556;28;20731;-74
2024/01/30 07:50:14;;;;;;;9.50;7.80;;;2.60;36.20;;;;;;10404525;28;20312;-74
2024/01/30 07:55:19;;;;;;;12.07;9.00;;;2.70;36.20;;;;;;10405952;28;20229;-74
2024/01/30 08:00:24;;;;;;;12.80;11.50;;;2.80;36.50;;;;;;10412767;28;20234;-74
2024/01/30 08:05:27;;;;;;;10.40;9.20;;;2.80;36.90;;;;;;10387580;28;20226;-74
2024/01/30 08:10:30;;;;;;;10.30;8.67;;;2.90;37.30;;;;;;10371396;28;20305;-74
2024/01/30 08:15:35;;;;;;;8.63;7.73;;;3.00;37.50;;;;;;10371022;28;20238;-74
2024/01/30 08:20:38;;;;;;;9.27;8.27;;;3.20;38.00;;;;;;10371403;28;20398;-74
2024/01/30 08:25:42;;;;;;;8.70;7.80;;;3.40;38.00;;;;;;10389805;28;20235;-74
2024/01/30 08:30:46;;;;;;;10.83;8.10;;;3.60;38.10;;;;;;10412862;28;20229;-74
2024/01/30 08:35:50;;;;;;;10.83;8.43;;;3.90;38.40;;;;;;10412155;28;20232;-74
2024/01/30 08:40:53;;;;;;;10.40;9.40;;;4.10;38.20;;;;;;10411774;28;20312;-74
2024/01/30 08:46:00;;;;;;;11.40;9.47;;;4.20;38.40;;;;;;10410879;28;20320;-74
2024/01/30 08:51:03;;;;;;;11.67;9.67;;;4.40;38.90;;;;;;10410904;28;20230;-74
2024/01/30 08:56:07;;;;;;;10.67;8.73;;;4.60;38.60;;;;;;10410919;28;20240;-74
2024/01/30 09:01:12;;;;;;;11.60;9.00;;;4.80;38.60;;;;;;10410682;28;20250;-74
2024/01/30 09:06:15;;;;;;;11.50;10.07;;;5.10;38.70;;;;;;10410055;28;20798;-74
2024/01/30 09:11:19;;;;;;;12.57;10.60;;;5.30;38.50;;;;;;10410659;28;20233;-75
2024/01/30 09:16:23;;;;;;;11.80;9.70;;;5.50;38.40;;;;;;10410604;28;20244;-75
2024/01/30 09:21:27;;;;;;;12.40;10.03;;;5.70;38.70;;;;;;10409997;28;20305;-75
2024/01/30 09:26:30;;;;;;;11.67;10.47;;;6.00;38.60;;;;;;10409972;28;20265;-75
2024/01/30 09:31:34;;;;;;;17.87;10.97;;;6.30;38.60;;;;;;10409880;28;20230;-75
2024/01/30 09:36:39;;;;;;;16.67;12.73;;;6.50;38.70;;;;;;10409188;28;20232;-75
2024/01/30 09:41:46;;;;;;;13.57;12.17;;;6.80;38.40;;;;;;10409024;28;20300;-74
2024/01/30 09:46:51;;;;;;;13.07;11.67;;;7.10;38.50;;;;;;10408786;28;20237;-74
2024/01/30 09:51:55;;;;;;;12.13;11.03;;;7.30;38.70;;;;;;10376488;28;20246;-75
2024/01/30 09:56:59;;;;;;;13.80;11.10;;;7.40;38.60;;;;;;10407899;28;20292;-74
2024/01/30 10:02:04;;;;;;;11.80;10.70;;;7.60;38.30;;;;;;10407643;28;20771;-74
2024/01/30 10:07:08;;;;;;;15.93;12.73;;;7.70;38.20;;;;;;10407690;28;20272;-74
2024/01/30 10:12:12;;;;;;;12.57;11.27;;;7.90;38.10;;;;;;10381761;28;20313;-74
2024/01/30 10:17:16;;;;;;;12.33;10.93;;;8.00;38.10;;;;;;10390537;28;20332;-74
2024/01/30 10:22:34;;;;;;;12.80;10.93;;;8.20;38.00;;;;;;10366393;28;20276;-74
2024/01/30 10:27:37;;;;;;;11.67;10.47;;;8.40;38.10;;;;;;10365995;28;20613;-74
2024/01/30 10:32:42;;;;;;;11.43;10.00;;;8.60;38.10;;;;;;10382241;28;20254;-74
2024/01/30 10:37:47;;;;;;;11.23;9.50;;;8.80;37.90;;;;;;10365771;28;20233;-75
2024/01/30 10:42:55;;;;;;;10.03;8.93;;;9.00;37.60;;;;;;10364938;28;20237;-75
2024/01/30 10:48:03;;;;;;;9.87;8.07;;;9.20;37.40;;;;;;10396764;28;20241;-74
2024/01/30 10:53:10;;;;;;;8.67;7.73;;;9.40;37.20;;;;;;10397511;28;20257;-75
2024/01/30 10:58:14;;;;;;;9.87;8.70;;;9.60;37.30;;;;;;10396780;28;20951;-74
2024/01/30 11:03:21;;;;;;;9.20;8.27;;;9.80;37.30;;;;;;10396149;28;20237;-74
2024/01/30 11:08:25;;;;;;;8.10;7.30;;;10.00;36.00;;;;;;10394449;28;20642;-75
2024/01/30 11:13:29;;;;;;;8.80;7.90;;;10.10;35.80;;;;;;10394290;28;20293;-75
2024/01/30 11:18:37;;;;;;;9.70;8.23;;;10.30;35.80;;;;;;10391791;28;20250;-75
2024/01/30 11:23:41;;;;;;;8.70;7.90;;;10.40;35.70;;;;;;10398001;28;20240;-75
2024/01/30 11:28:53;;;;;;;7.87;7.07;;;10.60;35.80;;;;;;10404823;28;20249;-75
2024/01/30 11:33:58;;;;;;;8.37;7.57;;;10.80;35.30;;;;;;10406527;28;20332;-75
2024/01/30 11:39:02;;;;;;;8.10;7.23;;;10.90;35.50;;;;;;10404792;28;20225;-75
2024/01/30 11:44:06;;;;;;;9.60;7.03;;;11.10;35.60;;;;;;10383163;28;20245;-75
2024/01/30 11:49:11;;;;;;;7.27;6.57;;;11.30;35.00;;;;;;10396268;28;20335;-74
2024/01/30 11:54:15;;;;;;;8.43;7.43;;;11.40;35.00;;;;;;10400301;28;20668;-75
2024/01/30 11:59:18;;;;;;;8.87;7.97;;;11.50;35.00;;;;;;10396500;28;20237;-74
2024/01/30 12:04:23;;;;;;;9.40;8.60;;;11.50;34.90;;;;;;10388066;28;20743;-75
2024/01/30 12:09:27;;;;;;;8.73;7.93;;;11.50;34.60;;;;;;10402348;28;20228;-75
2024/01/30 12:14:31;;;;;;;9.43;8.33;;;11.50;34.80;;;;;;10369430;28;20313;-75
2024/01/30 12:19:36;;;;;;;9.90;8.00;;;11.50;35.00;;;;;;10363501;28;20231;-75
2024/01/30 12:24:39;;;;;;;9.37;8.43;;;11.50;34.60;;;;;;10391653;28;20277;-75
2024/01/30 12:29:43;;;;;;;8.80;7.80;;;11.50;34.70;;;;;;10404241;28;20257;-75
2024/01/30 12:34:48;;;;;;;9.23;8.33;;;11.50;34.80;;;;;;10383315;28;20234;-75
2024/01/30 12:40:03;;;;;;;8.90;8.10;;;11.50;34.70;;;;;;10362831;28;20684;-74
2024/01/30 12:45:07;;;;;;;9.20;8.23;;;11.50;34.60;;;;;;10368722;28;20739;-75
2024/01/30 12:50:12;;;;;;;8.77;7.87;;;11.50;34.40;;;;;;10369772;28;20230;-75
2024/01/30 12:55:15;;;;;;;9.93;8.93;;;11.50;34.60;;;;;;10369598;28;20605;-75
2024/01/30 13:00:19;;;;;;;9.73;8.73;;;11.50;34.60;;;;;;10369397;28;20331;-75
2024/01/30 13:05:24;;;;;;;10.63;9.57;;;11.50;34.70;;;;;;10369397;28;20245;-74
2024/01/30 13:10:27;;;;;;;10.20;9.20;;;11.50;34.70;;;;;;10369211;28;20228;-75
2024/01/30 13:15:30;;;;;;;10.23;9.23;;;11.50;34.80;;;;;;10404554;28;20245;-74
2024/01/30 13:20:35;;;;;;;9.80;8.80;;;11.50;34.70;;;;;;10410140;28;20233;-74
2024/01/30 13:25:38;;;;;;;10.37;9.37;;;11.50;34.60;;;;;;10409727;28;20222;-75
2024/01/30 13:30:41;;;;;;;10.60;9.50;;;11.50;35.30;;;;;;10409511;28;20229;-75
2024/01/30 13:35:46;;;;;;;11.30;9.50;;;11.50;34.70;;;;;;10409248;28;20233;-75
2024/01/30 13:40:49;;;;;;;10.50;9.50;;;11.50;34.60;;;;;;10404967;28;20705;-75
2024/01/30 13:45:53;;;;;;;9.70;8.70;;;11.50;34.70;;;;;;10400788;28;20226;-75
2024/01/30 13:50:58;;;;;;;10.57;9.50;;;11.50;36.00;;;;;;10387632;28;20231;-75
2024/01/30 13:56:01;;;;;;;14.60;9.53;;;11.60;35.20;;;;;;10367042;28;20336;-75
2024/01/30 14:01:10;;;;;;;14.50;12.40;;;11.60;34.90;;;;;;10368322;28;20222;-77
2024/01/30 14:06:15;;;;;;;14.27;12.87;;;11.60;34.50;;;;;;10368392;28;20244;-76
2024/01/30 14:11:18;;;;;;;12.97;11.70;;;11.60;34.80;;;;;;10390658;28;20229;-75
2024/01/30 14:16:22;;;;;;;12.30;11.10;;;11.60;34.90;;;;;;10407395;28;20803;-75
2024/01/30 14:21:26;;;;;;;10.97;9.97;;;11.60;34.80;;;;;;10406824;28;20230;-75
2024/01/30 14:26:29;;;;;;;11.07;9.90;;;11.60;34.70;;;;;;10406320;28;20233;-74
2024/01/30 14:31:32;;;;;;;10.73;9.60;;;11.60;34.70;;;;;;10407430;28;20637;-75
2024/01/30 14:36:37;;;;;;;9.83;8.83;;;11.50;34.60;;;;;;10408361;28;20229;-75
2024/01/30 14:41:41;;;;;;;10.13;9.03;;;11.50;34.70;;;;;;10408036;28;20276;-76
2024/01/30 14:46:45;;;;;;;10.50;9.40;;;11.50;35.20;;;;;;10408047;28;20308;-76
2024/01/30 14:51:50;;;;;;;10.17;9.23;;;11.40;34.70;;;;;;10408387;28;20308;-76
2024/01/30 14:56:53;;;;;;;11.67;9.20;;;11.40;34.60;;;;;;10407366;28;20241;-77
2024/01/30 15:01:56;;;;;;;11.43;9.93;;;11.40;34.70;;;;;;10371372;28;20800;-76
2024/01/30 15:07:03;;;;;;;9.10;8.20;;;11.30;34.70;;;;;;10376050;28;20776;-77
2024/01/30 15:12:08;;;;;;;11.33;9.63;;;11.30;35.00;;;;;;10365334;28;20289;-77
2024/01/30 15:17:11;;;;;;;9.30;8.33;;;11.30;35.00;;;;;;10401967;28;20234;-76
2024/01/30 15:22:15;;;;;;;10.77;9.33;;;11.30;35.00;;;;;;10407073;28;20233;-76
2024/01/30 15:27:20;;;;;;;10.10;9.10;;;11.30;34.90;;;;;;10406361;28;20234;-76
2024/01/30 15:32:23;;;;;;;12.43;10.17;;;11.30;34.70;;;;;;10406860;28;20225;-76
2024/01/30 15:37:28;;;;;;;11.50;10.30;;;11.20;34.60;;;;;;10406635;28;20309;-76
2024/01/30 15:42:31;;;;;;;12.33;11.23;;;11.20;34.60;;;;;;10406139;28;20229;-76
2024/01/30 15:47:34;;;;;;;11.20;10.20;;;11.10;34.60;;;;;;10405795;28;20582;-76
2024/01/30 15:52:39;;;;;;;11.57;10.47;;;11.10;34.60;;;;;;10406188;28;20232;-77
2024/01/30 15:57:43;;;;;;;10.73;9.50;;;11.00;34.40;;;;;;10404227;28;20231;-79
2024/01/30 16:02:46;;;;;;;10.77;9.67;;;11.00;34.60;;;;;;10405016;28;20233;-76
2024/01/30 16:07:50;;;;;;;9.53;8.60;;;11.00;34.60;;;;;;10406106;28;20652;-76
2024/01/30 16:12:55;;;;;;;8.90;8.00;;;11.00;34.60;;;;;;10405768;28;20300;-77
2024/01/30 16:17:58;;;;;;;10.97;9.83;;;10.90;36.40;;;;;;10409772;28;20253;-78
2024/01/30 16:23:03;;;;;;;17.73;15.80;;;10.90;35.60;;;;;;10386655;28;20230;-78
2024/01/30 16:28:06;;;;;;;19.40;17.40;;;10.90;34.70;;;;;;10409659;28;20229;-77
2024/01/30 16:33:09;;;;;;;19.17;15.20;;;10.80;34.60;;;;;;10410219;28;20356;-77
2024/01/30 16:38:14;;;;;;;22.47;17.83;;;10.70;34.30;;;;;;10409525;28;20229;-77
2024/01/30 16:43:18;;;;;;;20.13;17.03;;;10.60;34.20;;;;;;10408390;28;20732;-77
2024/01/30 16:48:22;;;;;;;21.80;18.63;;;10.40;34.30;;;;;;10413712;28;20233;-77
2024/01/30 16:53:30;;;;;;;19.20;17.13;;;10.20;34.10;;;;;;10414667;28;20233;-78
2024/01/30 16:58:33;;;;;;;22.37;19.17;;;10.10;34.00;;;;;;10408192;28;20222;-78
2024/01/30 17:03:36;;;;;;;23.53;19.87;;;10.10;34.10;;;;;;10373282;28;20230;-78
2024/01/30 17:08:41;;;;;;;24.73;19.87;;;10.00;34.00;;;;;;10384764;28;20723;-79
2024/01/30 17:13:44;;;;;;;26.13;20.73;;;9.90;34.80;;;;;;10380039;28;20317;-79
2024/01/30 17:18:47;;;;;;;29.30;23.00;;;9.80;34.80;;;;;;10412212;28;20853;-78
2024/01/30 17:23:52;;;;;;;31.47;25.43;;;9.70;34.80;;;;;;10455934;28;20229;-78
2024/01/30 17:28:55;;;;;;;34.33;25.00;;;9.60;34.90;;;;;;10447228;28;20226;-79
2024/01/30 17:33:58;;;;;;;19.97;17.13;;;9.50;35.10;;;;;;10432025;28;20319;-79
2024/01/30 17:39:03;;;;;;;22.87;18.47;;;9.50;35.00;;;;;;10457038;28;20232;-79
2024/01/30 17:44:07;;;;;;;20.50;16.83;;;9.40;34.90;;;;;;10457635;28;20292;-79
2024/01/30 17:49:11;;;;;;;22.17;19.33;;;9.40;34.90;;;;;;10456940;28;20233;-79
2024/01/30 17:54:16;;;;;;;19.73;16.87;;;9.30;34.90;;;;;;10457404;28;20233;-79
2024/01/30 17:59:21;;;;;;;24.20;21.70;;;9.20;34.80;;;;;;10456714;28;20236;-79
2024/01/30 18:04:24;;;;;;;25.40;22.70;;;9.20;35.00;;;;;;10457553;28;20248;-79
2024/01/30 18:09:30;;;;;;;23.77;20.93;;;9.10;35.00;;;;;;10458966;28;20295;-79
2024/01/30 18:14:34;;;;;;;22.03;18.93;;;9.00;35.10;;;;;;10456668;28;20263;-79
2024/01/30 18:19:37;;;;;;;23.07;19.70;;;8.90;35.10;;;;;;10457858;28;20597;-79
2024/01/30 18:24:42;;;;;;;19.97;17.47;;;8.90;35.10;;;;;;10429988;28;20308;-78
2024/01/30 18:29:45;;;;;;;21.23;18.93;;;8.80;35.10;;;;;;10403179;28;20230;-78
2024/01/30 18:34:48;;;;;;;25.40;20.93;;;8.70;35.20;;;;;;10370563;28;20226;-78
2024/01/30 18:39:53;;;;;;;23.27;20.20;;;8.70;35.30;;;;;;10385740;28;20233;-79
2024/01/30 18:44:57;;;;;;;22.00;19.27;;;8.60;35.30;;;;;;10415205;28;20234;-79
2024/01/30 18:50:01;;;;;;;23.37;20.83;;;8.60;35.30;;;;;;10414516;28;20252;-80
2024/01/30 18:55:07;;;;;;;21.23;19.03;;;8.50;35.40;;;;;;10414174;28;20240;-79
2024/01/30 19:00:12;;;;;;;17.63;15.80;;;8.50;35.50;;;;;;10413192;28;20237;-80
2024/01/30 19:05:17;;;;;;;27.17;23.70;;;8.50;35.40;;;;;;10414180;28;20237;-79
2024/01/30 19:10:22;;;;;;;27.40;22.47;;;8.40;35.30;;;;;;10414735;28;20239;-80
2024/01/30 19:15:37;;;;;;;21.40;19.13;;;8.30;35.40;;;;;;10409343;28;20222;-80
2024/01/30 19:20:41;;;;;;;20.07;17.97;;;8.20;35.40;;;;;;10411041;28;20772;-79
2024/01/30 19:25:47;;;;;;;20.57;18.40;;;8.10;35.50;;;;;;10414511;28;20238;-80
2024/01/30 19:30:51;;;;;;;22.83;20.30;;;8.00;35.80;;;;;;10401265;28;20226;-79
2024/01/30 19:35:54;;;;;;;22.90;20.20;;;8.00;35.80;;;;;;10394164;28;20597;-77
2024/01/30 19:40:59;;;;;;;21.07;18.80;;;8.00;35.90;;;;;;10399075;28;20701;-79
2024/01/30 19:46:04;;;;;;;24.43;20.60;;;8.00;36.00;;;;;;10386361;28;20253;-78
2024/01/30 19:51:08;;;;;;;23.47;20.90;;;8.00;36.00;;;;;;10408912;28;20273;-78
2024/01/30 19:56:16;;;;;;;21.57;16.07;;;7.90;35.70;;;;;;10419945;28;20248;-80
2024/01/30 20:01:20;;;;;;;16.27;14.53;;;7.90;35.80;;;;;;10421687;28;20260;-80
2024/01/30 20:06:23;;;;;;;17.03;14.20;;;7.80;35.80;;;;;;10415805;28;20320;-77
2024/01/30 20:11:28;;;;;;;15.40;13.80;;;7.70;35.90;;;;;;10416109;28;20228;-75
2024/01/30 20:16:37;;;;;;;17.00;15.20;;;7.60;35.80;;;;;;10411347;28;20225;-76
2024/01/30 20:21:40;;;;;;;16.70;15.00;;;7.60;36.00;;;;;;10422798;28;20945;-79
2024/01/30 20:26:45;;;;;;;16.37;14.77;;;7.60;35.90;;;;;;10408596;28;20766;-80
2024/01/30 20:31:48;;;;;;;18.40;15.40;;;7.60;36.70;;;;;;10415573;28;20320;-79
2024/01/30 20:36:53;;;;;;;17.30;15.33;;;7.60;35.90;;;;;;10410248;28;20312;-76
2024/01/30 20:41:57;;;;;;;17.43;15.43;;;7.50;35.80;;;;;;10403563;28;20580;-77
2024/01/30 20:47:01;;;;;;;19.10;16.93;;;7.40;35.90;;;;;;10378865;28;20330;-77
2024/01/30 20:52:04;;;;;;;19.03;17.07;;;7.30;35.90;;;;;;10370896;28;20261;-77
2024/01/30 20:57:09;;;;;;;19.30;16.57;;;7.20;36.00;;;;;;10425056;28;20241;-81
2024/01/30 21:02:19;;;;;;;18.37;15.97;;;7.20;36.20;;;;;;10415334;28;20233;-82
2024/01/30 21:07:22;;;;;;;16.03;14.20;;;7.20;36.50;;;;;;10402007;28;20708;-78
2024/01/30 21:12:28;;;;;;;14.47;12.97;;;7.10;36.10;;;;;;10398410;28;20296;-77
2024/01/30 21:17:32;;;;;;;15.17;13.57;;;7.10;36.30;;;;;;10392668;28;20226;-80
2024/01/30 21:22:38;;;;;;;16.93;14.23;;;7.00;36.20;;;;;;10399254;28;21015;-80
2024/01/30 21:27:48;;;;;;;16.27;14.07;;;7.00;36.50;;;;;;10393060;28;20835;-84
2024/01/30 21:32:53;;;;;;;16.03;14.33;;;6.90;36.70;;;;;;10404957;28;20233;-80
2024/01/30 21:37:56;;;;;;;23.27;20.63;;;6.90;36.50;;;;;;10390123;28;20233;-82
2024/01/30 21:43:01;;;;;;;25.70;20.63;;;6.90;36.30;;;;;;10392843;28;20309;-81
2024/01/30 21:48:08;;;;;;;19.93;16.60;;;6.90;36.60;;;;;;10411987;28;20226;-84
2024/01/30 21:53:17;;;;;;;18.47;15.47;;;6.80;36.70;;;;;;10398799;28;20272;-83
2024/01/30 21:58:26;;;;;;;15.50;13.93;;;6.80;36.90;;;;;;10410157;28;20270;-83
2024/01/30 22:03:45;;;;;;;16.90;14.10;;;6.80;36.80;;;;;;10404796;28;20731;-84
2024/01/30 22:09:01;;;;;;;16.37;14.43;;;6.70;37.30;;;;;;10389147;28;20274;-83
2024/01/30 22:14:08;;;;;;;15.37;13.80;;;6.70;37.40;;;;;;10403850;28;20252;-84
2024/01/30 22:19:13;;;;;;;14.23;12.60;;;6.70;37.20;;;;;;10422069;28;20226;-83
2024/01/30 22:24:32;;;;;;;15.50;13.47;;;6.70;36.90;;;;;;10412270;28;20233;-83
2024/01/30 22:29:37;;;;;;;14.80;13.23;;;6.70;37.60;;;;;;10413228;28;20276;-83
2024/01/30 22:34:40;;;;;;;14.43;12.93;;;6.50;37.20;;;;;;10412731;28;20225;-83
2024/01/30 22:39:53;;;;;;;15.57;13.37;;;6.50;37.40;;;;;;10539533;27;20576;-70
2024/01/30 22:44:56;;;;;;;13.20;11.80;;;6.40;37.70;;;;;;10537541;27;20314;-67
2024/01/30 22:50:00;;;;;;;14.17;12.67;;;6.50;37.50;;;;;;10562846;27;20709;-67
2024/01/30 22:55:05;;;;;;;15.43;13.10;;;6.50;37.60;;;;;;10551118;27;20222;-67
2024/01/30 23:00:13;;;;;;;13.63;12.23;;;6.50;38.00;;;;;;10559722;28;20343;-67
2024/01/30 23:05:16;;;;;;;14.63;13.03;;;6.50;37.60;;;;;;10561770;27;20226;-67
2024/01/30 23:10:21;;;;;;;16.67;12.67;;;6.50;37.60;;;;;;10563213;27;20760;-67
2024/01/30 23:15:24;;;;;;;15.03;13.10;;;6.50;38.00;;;;;;10566467;27;20231;-67
2024/01/30 23:20:28;;;;;;;13.60;11.60;;;6.50;37.90;;;;;;10558395;27;20297;-67
2024/01/30 23:25:33;;;;;;;14.40;12.90;;;6.50;37.90;;;;;;10558800;27;20308;-66
2024/01/30 23:30:36;;;;;;;14.40;12.43;;;6.50;38.00;;;;;;10560123;27;20307;-67
2024/01/30 23:35:40;;;;;;;13.90;12.37;;;6.50;37.90;;;;;;10559953;28;20280;-67
2024/01/30 23:40:45;;;;;;;13.10;11.40;;;6.60;38.70;;;;;;10562215;27;20313;-71
2024/01/30 23:45:48;;;;;;;13.67;12.23;;;6.60;38.10;;;;;;10561146;27;20292;-70
2024/01/30 23:50:52;;;;;;;14.40;12.03;;;6.60;37.90;;;;;;10528660;28;20304;-71
2024/01/30 23:55:56;;;;;;;13.70;12.23;;;6.60;38.10;;;;;;10530257;28;20319;-67
